Time;durP1;ratioP1;P1;durP2;ratioP2;P2;SDS_P1;SDS_P2;PMS_P1;PMS_P2;Temp;Humidity;BMP_temperature;BMP_pressure;BME280_temperature;BME280_humidity;BME280_pressure;Samples;Min_cycle;Max_cycle;Signal;HPM_P1;HPM_P2
2023/09/15 00:01:00;;;;;;;2.97;2.30;;;13.10;99.90;;;;;;5046191;28;20020;-67
2023/09/15 00:03:26;;;;;;;3.72;2.13;;;13.10;99.90;;;;;;5049797;28;20021;-67
2023/09/15 00:05:52;;;;;;;4.80;2.63;;;13.10;99.90;;;;;;5059937;28;20028;-67
2023/09/15 00:08:17;;;;;;;4.18;1.98;;;13.10;99.90;;;;;;5045924;28;20029;-67
2023/09/15 00:10:44;;;;;;;3.83;2.42;;;13.10;99.90;;;;;;5048867;28;20039;-67
2023/09/15 00:13:10;;;;;;;2.92;1.95;;;13.10;99.90;;;;;;5045774;28;20559;-67
2023/09/15 00:15:36;;;;;;;3.15;2.20;;;13.00;99.90;;;;;;5049059;28;20025;-67
2023/09/15 00:18:02;;;;;;;3.88;2.30;;;13.00;99.90;;;;;;5045672;28;20456;-67
2023/09/15 00:20:28;;;;;;;4.60;2.00;;;13.00;99.90;;;;;;5045379;28;20111;-67
2023/09/15 00:22:55;;;;;;;6.15;1.85;;;13.00;99.90;;;;;;5049296;28;20037;-67
2023/09/15 00:25:25;;;;;;;3.63;2.10;;;13.00;99.90;;;;;;5055200;28;20025;-67
2023/09/15 00:27:53;;;;;;;2.55;2.00;;;13.00;99.90;;;;;;5060734;28;20032;-66
2023/09/15 00:30:21;;;;;;;4.43;2.05;;;13.00;99.90;;;;;;5035378;28;20036;-67
2023/09/15 00:32:48;;;;;;;5.57;2.20;;;12.90;99.90;;;;;;5052788;28;20802;-67
2023/09/15 00:35:27;;;;;;;3.28;1.90;;;12.90;99.90;;;;;;5040631;28;20116;-67
2023/09/15 00:37:55;;;;;;;4.15;2.60;;;12.90;99.90;;;;;;5035612;28;20040;-67
2023/09/15 00:40:22;;;;;;;2.78;2.30;;;12.90;99.90;;;;;;5042641;28;20029;-67
2023/09/15 00:42:49;;;;;;;3.90;2.20;;;12.90;99.90;;;;;;5053639;28;20040;-67
2023/09/15 00:45:19;;;;;;;5.85;1.98;;;13.00;99.90;;;;;;5035543;28;20029;-66
2023/09/15 00:47:49;;;;;;;3.20;2.10;;;12.90;99.90;;;;;;5047095;28;20378;-67
2023/09/15 00:50:17;;;;;;;3.55;2.00;;;12.90;99.90;;;;;;5041703;28;20029;-66
2023/09/15 00:52:49;;;;;;;5.05;2.13;;;12.90;99.90;;;;;;5032945;28;20493;-66
2023/09/15 00:55:19;;;;;;;3.88;1.80;;;12.80;99.90;;;;;;5044974;28;20495;-67
2023/09/15 00:57:47;;;;;;;3.88;2.28;;;12.80;99.90;;;;;;5054491;28;20031;-67
2023/09/15 01:00:14;;;;;;;3.75;2.03;;;12.90;99.90;;;;;;5045547;28;20017;-67
2023/09/15 01:02:45;;;;;;;5.50;1.95;;;12.80;99.90;;;;;;5040798;28;20032;-67
2023/09/15 01:05:19;;;;;;;3.42;2.30;;;12.80;99.90;;;;;;5047575;28;20067;-67
2023/09/15 01:07:47;;;;;;;3.83;2.35;;;12.80;99.90;;;;;;5050178;28;20111;-67
2023/09/15 01:10:14;;;;;;;2.95;1.80;;;12.80;99.90;;;;;;5040576;28;20041;-67
2023/09/15 01:12:41;;;;;;;4.57;2.20;;;12.80;99.90;;;;;;5034712;28;20575;-67
2023/09/15 01:15:07;;;;;;;3.63;2.25;;;12.80;99.90;;;;;;5051380;28;20159;-67
2023/09/15 01:17:43;;;;;;;3.05;1.98;;;12.70;99.90;;;;;;5038085;28;20510;-67
2023/09/15 01:20:17;;;;;;;4.72;2.10;;;12.70;99.90;;;;;;5043518;28;20033;-66
2023/09/15 01:22:51;;;;;;;4.90;3.85;;;12.60;99.90;;;;;;5033170;28;20029;-67
2023/09/15 01:25:29;;;;;;;3.63;1.85;;;12.60;99.90;;;;;;5038519;28;20036;-66
2023/09/15 01:28:35;;;;;;;5.75;2.08;;;12.60;99.90;;;;;;5035781;28;20041;-67
2023/09/15 01:31:01;;;;;;;3.40;2.00;;;12.60;99.90;;;;;;5039589;28;20037;-67
2023/09/15 01:33:30;;;;;;;3.33;2.30;;;12.60;99.90;;;;;;5052119;28;20037;-67
2023/09/15 01:35:56;;;;;;;2.78;2.08;;;12.60;99.90;;;;;;5035305;28;20028;-67
2023/09/15 01:38:22;;;;;;;3.50;2.00;;;12.50;99.90;;;;;;5046000;28;20151;-67
2023/09/15 01:46:11;;;;;;;2.92;2.25;;;12.40;99.90;;;;;;5178902;23;20140;-69
2023/09/15 01:48:38;;;;;;;5.88;2.88;;;12.40;99.90;;;;;;4974727;28;20101;-69
2023/09/15 01:51:04;;;;;;;4.55;2.08;;;12.50;99.90;;;;;;4980326;28;20037;-69
2023/09/15 01:53:31;;;;;;;5.38;2.60;;;12.50;99.90;;;;;;4978784;28;20396;-69
2023/09/15 01:55:57;;;;;;;4.07;2.60;;;12.50;99.90;;;;;;4995178;28;20045;-69
2023/09/15 01:58:24;;;;;;;7.28;2.70;;;12.50;99.90;;;;;;4975852;28;20081;-69
2023/09/15 02:00:51;;;;;;;4.40;2.40;;;12.50;99.90;;;;;;4988907;28;20532;-69
2023/09/15 02:03:17;;;;;;;4.22;2.90;;;12.50;99.90;;;;;;4977060;28;20033;-69
2023/09/15 02:05:43;;;;;;;6.32;2.97;;;12.60;99.90;;;;;;5000367;28;20079;-69
2023/09/15 02:08:09;;;;;;;5.45;3.10;;;12.70;99.90;;;;;;4978253;28;20038;-69
2023/09/15 02:10:35;;;;;;;3.38;2.30;;;12.70;99.90;;;;;;4973569;28;20103;-69
2023/09/15 02:13:01;;;;;;;5.05;2.10;;;12.80;99.90;;;;;;4978442;28;20053;-69
2023/09/15 02:15:29;;;;;;;5.15;2.13;;;12.80;99.90;;;;;;4975816;28;20034;-69
2023/09/15 02:17:58;;;;;;;6.38;2.60;;;12.80;99.90;;;;;;4987139;28;20039;-69
2023/09/15 02:20:24;;;;;;;5.05;2.17;;;12.80;99.90;;;;;;4998698;28;20152;-69
2023/09/15 02:22:50;;;;;;;4.60;2.33;;;12.80;99.90;;;;;;4970201;28;20597;-69
2023/09/15 02:25:16;;;;;;;5.03;2.10;;;12.80;99.90;;;;;;4973860;28;20401;-69
2023/09/15 02:27:42;;;;;;;6.00;2.58;;;12.80;99.90;;;;;;4993083;28;20034;-69
2023/09/15 02:30:08;;;;;;;3.10;2.17;;;12.80;99.90;;;;;;4994495;28;20045;-69
2023/09/15 02:32:34;;;;;;;4.15;2.20;;;12.70;99.90;;;;;;4959922;28;20041;-69
2023/09/15 02:35:00;;;;;;;3.60;2.13;;;12.70;99.90;;;;;;4995446;28;20038;-69
2023/09/15 02:37:26;;;;;;;3.30;2.22;;;12.60;99.90;;;;;;4984387;28;20048;-69
2023/09/15 02:39:53;;;;;;;6.80;2.55;;;12.60;99.90;;;;;;4980732;28;20525;-69
2023/09/15 02:42:19;;;;;;;3.85;2.60;;;12.60;99.90;;;;;;4994727;28;20116;-69
2023/09/15 02:44:45;;;;;;;4.57;2.33;;;12.60;99.90;;;;;;4981275;28;20034;-69
2023/09/15 02:47:11;;;;;;;3.95;1.90;;;12.60;99.90;;;;;;4981698;28;20028;-69
2023/09/15 02:49:37;;;;;;;2.85;2.05;;;12.50;99.90;;;;;;4996341;28;20030;-69
2023/09/15 02:52:05;;;;;;;4.35;2.10;;;12.50;99.90;;;;;;4985970;28;20034;-69
2023/09/15 02:54:31;;;;;;;5.18;2.60;;;12.50;99.90;;;;;;4974294;28;20034;-69
2023/09/15 02:56:57;;;;;;;5.57;2.55;;;12.50;99.90;;;;;;4995994;28;20549;-69
2023/09/15 02:59:22;;;;;;;2.97;2.25;;;12.50;99.90;;;;;;4981592;28;20026;-69
2023/09/15 03:01:50;;;;;;;3.50;1.98;;;12.50;99.90;;;;;;4981074;28;20144;-69
2023/09/15 03:04:19;;;;;;;3.33;2.08;;;12.50;99.90;;;;;;4971272;28;20062;-69
2023/09/15 03:06:47;;;;;;;5.45;2.38;;;12.40;99.90;;;;;;4979626;28;20038;-69
2023/09/15 03:09:13;;;;;;;4.38;2.63;;;12.50;99.90;;;;;;4978541;28;20034;-69
2023/09/15 03:11:39;;;;;;;3.63;2.55;;;12.40;99.90;;;;;;4993793;28;20786;-69
2023/09/15 03:14:05;;;;;;;3.85;2.53;;;12.50;99.90;;;;;;4988278;28;20084;-69
2023/09/15 03:16:31;;;;;;;4.82;3.10;;;12.40;99.90;;;;;;4977584;28;20054;-69
2023/09/15 03:18:57;;;;;;;4.18;2.45;;;12.40;99.90;;;;;;4995686;28;20026;-69
2023/09/15 03:21:23;;;;;;;5.10;2.70;;;12.40;99.90;;;;;;4987629;28;20070;-69
2023/09/15 03:23:49;;;;;;;3.90;2.30;;;12.40;99.90;;;;;;4990873;28;20040;-69
2023/09/15 03:26:15;;;;;;;6.80;2.85;;;12.40;99.90;;;;;;4970798;28;20108;-69
2023/09/15 03:28:45;;;;;;;5.70;2.53;;;12.50;99.90;;;;;;4961791;28;20065;-69
2023/09/15 03:31:11;;;;;;;4.13;2.60;;;12.50;99.90;;;;;;4999291;28;20058;-69
2023/09/15 03:33:38;;;;;;;8.85;2.90;;;12.50;99.90;;;;;;4988105;28;20034;-69
2023/09/15 03:36:03;;;;;;;5.75;2.63;;;12.50;99.90;;;;;;4981584;28;20025;-69
2023/09/15 03:38:29;;;;;;;3.28;2.17;;;12.50;99.90;;;;;;4986200;28;20061;-69
2023/09/15 03:40:56;;;;;;;2.83;2.05;;;12.50;99.90;;;;;;4978951;28;20025;-68
2023/09/15 03:43:24;;;;;;;4.38;2.75;;;12.50;99.90;;;;;;4975148;28;20054;-69
2023/09/15 03:45:52;;;;;;;5.07;2.30;;;12.50;99.90;;;;;;4978114;28;20074;-69
2023/09/15 03:48:19;;;;;;;7.57;3.08;;;12.50;99.90;;;;;;4972003;28;20030;-69
2023/09/15 03:50:47;;;;;;;4.90;2.78;;;12.50;99.90;;;;;;4979290;28;20045;-69
2023/09/15 03:53:13;;;;;;;4.68;2.90;;;12.50;99.90;;;;;;4960599;28;20030;-69
2023/09/15 03:55:39;;;;;;;4.90;2.97;;;12.50;99.90;;;;;;4975973;28;20073;-69
2023/09/15 03:58:04;;;;;;;5.28;2.78;;;12.60;99.90;;;;;;4977893;28;20061;-69
2023/09/15 04:00:31;;;;;;;4.95;2.97;;;12.50;99.90;;;;;;4977069;28;20026;-69
2023/09/15 04:02:56;;;;;;;4.07;2.53;;;12.60;99.90;;;;;;4987255;28;20030;-69
2023/09/15 04:05:22;;;;;;;5.80;3.13;;;12.50;99.90;;;;;;4998038;28;20478;-69
2023/09/15 04:07:48;;;;;;;4.72;3.20;;;12.60;99.90;;;;;;5001556;28;20489;-69
2023/09/15 04:10:14;;;;;;;4.35;3.10;;;12.60;99.90;;;;;;4986338;28;20067;-69
2023/09/15 04:12:42;;;;;;;6.22;2.90;;;12.60;99.90;;;;;;4977615;28;20050;-69
2023/09/15 04:15:09;;;;;;;5.25;3.47;;;12.60;99.90;;;;;;4994943;28;20030;-69
2023/09/15 04:17:35;;;;;;;3.95;3.00;;;12.60;99.90;;;;;;4970898;28;20038;-69
2023/09/15 04:20:01;;;;;;;4.78;3.15;;;12.60;99.90;;;;;;4991236;28;20394;-69
2023/09/15 04:22:27;;;;;;;6.63;3.25;;;12.60;99.90;;;;;;4998549;28;20088;-69
2023/09/15 04:24:53;;;;;;;6.25;3.15;;;12.60;99.90;;;;;;4978790;28;20555;-69
2023/09/15 04:27:19;;;;;;;5.72;2.90;;;12.60;99.90;;;;;;4982962;28;20034;-69
2023/09/15 04:29:55;;;;;;;4.80;2.92;;;12.60;99.90;;;;;;4978374;28;20034;-69
2023/09/15 04:32:26;;;;;;;11.50;3.72;;;12.60;99.90;;;;;;4980009;28;20034;-69
2023/09/15 04:34:53;;;;;;;5.25;3.05;;;12.50;99.90;;;;;;4975697;28;20116;-69
2023/09/15 04:37:20;;;;;;;5.78;3.05;;;12.50;99.90;;;;;;4971764;28;20035;-69
2023/09/15 04:39:49;;;;;;;3.85;2.78;;;12.50;99.90;;;;;;4977323;28;20030;-69
2023/09/15 04:42:16;;;;;;;5.05;3.00;;;12.50;99.90;;;;;;4974944;28;20737;-69
2023/09/15 04:44:43;;;;;;;5.15;2.80;;;12.50;99.90;;;;;;4976388;28;20021;-69
2023/09/15 04:47:11;;;;;;;3.13;2.55;;;12.50;99.90;;;;;;4983862;28;20034;-69
2023/09/15 04:49:37;;;;;;;5.13;3.00;;;12.50;99.90;;;;;;4977516;28;20116;-69
2023/09/15 04:52:03;;;;;;;5.65;3.35;;;12.50;99.90;;;;;;4980815;28;20540;-69
2023/09/15 04:54:29;;;;;;;3.25;2.25;;;12.50;99.90;;;;;;4980235;28;20039;-69
2023/09/15 04:56:56;;;;;;;4.43;2.70;;;12.50;99.90;;;;;;4978300;28;20702;-69
2023/09/15 04:59:23;;;;;;;5.78;2.80;;;12.50;99.90;;;;;;4979661;28;20017;-69
2023/09/15 05:01:51;;;;;;;3.80;2.55;;;12.50;99.90;;;;;;4966283;28;20113;-69
2023/09/15 05:04:19;;;;;;;3.42;2.38;;;12.50;99.90;;;;;;4978866;28;20592;-69
2023/09/15 05:06:46;;;;;;;4.80;2.40;;;12.50;99.90;;;;;;4988446;28;20088;-69
2023/09/15 05:09:14;;;;;;;4.43;2.72;;;12.50;99.90;;;;;;4972578;28;20037;-69
2023/09/15 05:11:40;;;;;;;2.85;2.28;;;12.50;99.90;;;;;;4976879;28;20734;-69
2023/09/15 05:14:06;;;;;;;5.30;2.75;;;12.50;99.90;;;;;;4997869;28;20049;-69
2023/09/15 05:16:33;;;;;;;5.25;2.92;;;12.50;99.90;;;;;;4979455;28;20022;-69
2023/09/15 05:18:59;;;;;;;4.25;2.53;;;12.60;99.90;;;;;;4959235;28;20031;-69
2023/09/15 05:21:25;;;;;;;4.80;3.10;;;12.50;99.90;;;;;;4976016;28;20105;-69
2023/09/15 05:23:51;;;;;;;4.85;2.92;;;12.60;99.90;;;;;;4983599;28;20567;-69
2023/09/15 05:26:18;;;;;;;4.00;2.90;;;12.60;99.90;;;;;;4984336;28;20497;-69
2023/09/15 05:28:44;;;;;;;7.80;3.70;;;12.60;99.90;;;;;;4965272;28;20046;-69
2023/09/15 05:31:12;;;;;;;3.47;2.53;;;12.70;99.90;;;;;;4992498;28;20038;-69
2023/09/15 05:33:38;;;;;;;4.68;2.90;;;12.70;99.90;;;;;;4981702;28;20668;-69
2023/09/15 05:36:04;;;;;;;3.88;2.78;;;12.70;99.90;;;;;;4992965;28;20030;-69
2023/09/15 05:38:30;;;;;;;7.47;3.17;;;12.70;99.90;;;;;;4979267;28;20188;-69
2023/09/15 05:40:56;;;;;;;4.97;2.75;;;12.80;99.90;;;;;;4963124;28;20442;-69
2023/09/15 05:43:21;;;;;;;6.30;2.67;;;12.80;99.90;;;;;;4980162;28;20564;-69
2023/09/15 05:45:48;;;;;;;4.65;3.42;;;12.80;99.90;;;;;;4994252;28;20073;-69
2023/09/15 05:48:23;;;;;;;7.88;3.20;;;12.90;99.90;;;;;;4987684;28;20034;-69
2023/09/15 05:50:52;;;;;;;3.97;2.78;;;12.90;99.90;;;;;;4985739;28;20088;-69
2023/09/15 05:53:17;;;;;;;4.13;2.83;;;13.00;99.90;;;;;;4973572;28;20042;-69
2023/09/15 05:55:43;;;;;;;4.43;2.90;;;13.00;99.90;;;;;;4990999;28;20046;-69
2023/09/15 05:58:09;;;;;;;4.05;2.67;;;13.10;99.90;;;;;;4994451;28;20037;-69
2023/09/15 06:00:35;;;;;;;5.60;3.38;;;13.10;99.90;;;;;;4993814;28;20050;-69
2023/09/15 06:03:02;;;;;;;4.38;2.88;;;13.20;99.90;;;;;;4996389;28;20072;-69
2023/09/15 06:05:28;;;;;;;5.53;3.47;;;13.30;99.90;;;;;;4990370;28;20109;-69
2023/09/15 06:07:54;;;;;;;5.28;3.30;;;13.30;99.90;;;;;;5000978;28;20076;-69
2023/09/15 06:10:20;;;;;;;5.47;3.20;;;13.40;99.90;;;;;;4994787;28;20088;-69
2023/09/15 06:12:48;;;;;;;4.75;2.95;;;13.50;99.90;;;;;;4996987;28;20054;-69
2023/09/15 06:15:14;;;;;;;5.68;3.30;;;13.60;99.90;;;;;;4992835;28;20046;-69
2023/09/15 06:17:40;;;;;;;5.15;3.17;;;13.60;99.90;;;;;;4996952;28;20038;-69
2023/09/15 06:20:06;;;;;;;3.50;2.70;;;13.70;99.90;;;;;;4998773;28;20057;-69
2023/09/15 06:22:33;;;;;;;3.35;2.53;;;13.80;99.90;;;;;;4991816;28;20418;-69
2023/09/15 06:24:59;;;;;;;4.72;2.72;;;13.90;99.90;;;;;;4998650;28;20548;-69
2023/09/15 06:27:25;;;;;;;6.43;3.40;;;13.90;99.90;;;;;;4998783;28;20485;-69
2023/09/15 06:29:54;;;;;;;5.28;3.22;;;14.00;99.90;;;;;;4992379;28;20038;-69
2023/09/15 06:32:20;;;;;;;4.78;3.30;;;14.10;99.90;;;;;;5001905;28;20033;-69
2023/09/15 06:34:45;;;;;;;7.97;4.32;;;14.10;99.90;;;;;;4989555;28;20045;-69
2023/09/15 06:37:11;;;;;;;8.25;3.50;;;14.20;99.90;;;;;;4995645;28;20054;-69
2023/09/15 06:39:37;;;;;;;5.97;3.50;;;14.30;99.90;;;;;;5002788;28;20559;-69
2023/09/15 06:42:08;;;;;;;4.68;3.53;;;14.40;99.90;;;;;;4988272;28;20026;-69
2023/09/15 06:44:37;;;;;;;5.82;3.85;;;14.40;99.90;;;;;;4997864;28;20041;-69
2023/09/15 06:47:04;;;;;;;4.13;3.20;;;14.50;99.90;;;;;;4988113;28;20044;-69
2023/09/15 06:49:31;;;;;;;3.90;3.03;;;14.60;99.90;;;;;;4994798;28;20486;-69
2023/09/15 06:51:57;;;;;;;8.90;4.05;;;14.80;99.90;;;;;;4990958;28;20567;-69
2023/09/15 06:54:23;;;;;;;6.13;3.55;;;15.00;99.90;;;;;;4995787;28;20030;-69
2023/09/15 06:56:50;;;;;;;11.20;3.60;;;15.20;99.90;;;;;;4982908;28;20062;-69
2023/09/15 06:59:17;;;;;;;6.00;3.65;;;15.40;99.90;;;;;;4996426;28;20034;-69
2023/09/15 07:01:43;;;;;;;5.18;3.35;;;15.60;99.90;;;;;;4974647;28;20106;-69
2023/09/15 07:04:12;;;;;;;7.82;3.70;;;15.70;99.90;;;;;;4992974;28;20032;-69
2023/09/15 07:06:39;;;;;;;4.15;3.05;;;15.80;99.90;;;;;;4990150;28;20695;-69
2023/09/15 07:09:05;;;;;;;4.68;2.85;;;15.90;99.90;;;;;;5004876;28;20440;-69
2023/09/15 07:11:31;;;;;;;5.90;3.33;;;16.10;99.90;;;;;;4998481;28;20532;-70
2023/09/15 07:13:56;;;;;;;6.13;2.83;;;16.30;99.90;;;;;;4997130;28;20030;-69
2023/09/15 07:16:22;;;;;;;6.18;3.08;;;16.50;99.90;;;;;;4989736;28;20034;-70
2023/09/15 07:18:48;;;;;;;4.85;2.92;;;16.50;99.90;;;;;;4995167;28;20034;-69
2023/09/15 07:21:14;;;;;;;5.30;2.70;;;16.60;99.90;;;;;;4964844;28;20552;-69
2023/09/15 07:23:39;;;;;;;4.32;2.90;;;16.60;99.90;;;;;;4984591;28;20468;-69
2023/09/15 07:26:05;;;;;;;9.30;3.03;;;16.70;99.90;;;;;;4981075;28;20061;-69
2023/09/15 07:28:31;;;;;;;5.00;2.85;;;16.80;99.90;;;;;;4973577;28;20045;-69
2023/09/15 07:31:09;;;;;;;9.20;3.72;;;16.80;99.90;;;;;;4989103;28;20150;-70
2023/09/15 07:33:35;;;;;;;4.68;2.45;;;16.90;99.90;;;;;;4978291;28;20030;-70
2023/09/15 07:36:02;;;;;;;4.40;2.80;;;17.10;99.90;;;;;;4981590;28;20045;-69
2023/09/15 07:38:29;;;;;;;6.78;2.83;;;17.10;99.90;;;;;;4991319;28;20077;-69
2023/09/15 07:40:55;;;;;;;4.82;2.80;;;17.20;99.90;;;;;;4988664;28;20450;-70
2023/09/15 07:43:21;;;;;;;4.30;2.65;;;17.20;99.90;;;;;;4990176;28;20512;-70
2023/09/15 07:45:48;;;;;;;4.95;2.95;;;17.30;99.90;;;;;;4995641;28;20038;-70
2023/09/15 07:48:14;;;;;;;6.50;3.25;;;17.50;99.90;;;;;;5002065;28;20036;-70
2023/09/15 07:50:40;;;;;;;4.97;2.47;;;17.60;99.90;;;;;;4981526;28;20033;-70
2023/09/15 07:53:06;;;;;;;4.25;2.45;;;17.70;99.90;;;;;;4982535;28;20568;-69
2023/09/15 07:55:32;;;;;;;6.78;2.72;;;17.90;99.90;;;;;;4993289;28;20034;-69
2023/09/15 07:57:57;;;;;;;3.60;2.33;;;18.00;99.90;;;;;;4984849;28;20111;-70
2023/09/15 08:00:24;;;;;;;5.18;2.33;;;18.00;99.90;;;;;;4995317;28;20017;-69
2023/09/15 08:02:50;;;;;;;3.25;2.20;;;18.00;99.90;;;;;;4986538;28;20577;-70
2023/09/15 08:05:15;;;;;;;6.50;2.83;;;18.10;99.90;;;;;;4998128;28;20409;-69
2023/09/15 08:07:45;;;;;;;4.93;2.60;;;18.10;99.90;;;;;;4990192;28;20037;-70
2023/09/15 08:10:12;;;;;;;7.25;2.95;;;18.20;99.90;;;;;;4998000;28;20041;-70
2023/09/15 08:12:38;;;;;;;5.13;2.60;;;18.20;99.90;;;;;;4986650;28;20042;-69
2023/09/15 08:15:05;;;;;;;4.60;2.05;;;18.30;99.80;;;;;;4987591;28;20117;-68
2023/09/15 08:17:31;;;;;;;4.28;2.53;;;18.30;99.50;;;;;;4997967;28;20108;-69
2023/09/15 08:19:57;;;;;;;5.50;2.35;;;18.30;99.60;;;;;;4992695;28;20023;-70
2023/09/15 08:22:25;;;;;;;4.20;2.55;;;18.40;99.10;;;;;;4988727;28;20129;-70
2023/09/15 08:24:51;;;;;;;4.70;2.17;;;18.40;99.20;;;;;;4993923;28;20026;-70
2023/09/15 08:27:17;;;;;;;7.22;2.28;;;18.40;99.30;;;;;;4989925;28;20062;-69
2023/09/15 08:29:43;;;;;;;3.85;2.13;;;18.50;98.80;;;;;;4982988;28;20070;-69
2023/09/15 08:32:10;;;;;;;4.45;2.10;;;18.60;99.00;;;;;;4986734;28;20050;-69
2023/09/15 08:34:36;;;;;;;3.42;2.13;;;18.70;98.70;;;;;;4992174;28;20033;-69
2023/09/15 08:37:03;;;;;;;5.25;2.42;;;18.80;98.60;;;;;;4990425;28;20047;-69
2023/09/15 08:39:29;;;;;;;6.70;2.42;;;18.90;98.60;;;;;;4992048;28;20026;-69
2023/09/15 08:42:02;;;;;;;5.78;2.58;;;19.00;97.60;;;;;;4990135;28;20031;-69
2023/09/15 08:44:31;;;;;;;5.88;2.50;;;19.00;97.00;;;;;;4995721;28;20029;-70
2023/09/15 08:47:00;;;;;;;3.60;1.83;;;19.10;97.60;;;;;;4982093;28;20035;-69
2023/09/15 08:49:27;;;;;;;4.07;2.33;;;19.20;97.30;;;;;;4984848;28;20076;-69
2023/09/15 08:51:55;;;;;;;4.82;2.17;;;19.30;97.00;;;;;;4989993;28;20133;-67
2023/09/15 08:54:21;;;;;;;2.65;1.70;;;19.40;96.80;;;;;;4993829;28;20038;-67
2023/09/15 08:56:48;;;;;;;4.07;1.98;;;19.60;96.90;;;;;;4999988;28;20408;-67
2023/09/15 08:59:17;;;;;;;4.30;2.00;;;19.80;96.30;;;;;;4978714;28;20030;-68
2023/09/15 09:01:42;;;;;;;3.30;1.88;;;19.90;95.70;;;;;;4989613;28;20501;-67
2023/09/15 09:04:10;;;;;;;4.75;2.10;;;20.10;95.60;;;;;;4989217;28;20095;-67
2023/09/15 09:06:36;;;;;;;7.18;1.98;;;20.20;96.00;;;;;;4993943;28;20488;-67
2023/09/15 09:09:04;;;;;;;2.72;1.75;;;20.40;95.00;;;;;;4989686;28;20083;-67
2023/09/15 09:11:31;;;;;;;4.63;2.47;;;20.50;94.30;;;;;;4995810;28;20401;-67
2023/09/15 09:13:57;;;;;;;7.53;2.22;;;20.70;94.00;;;;;;4987535;28;20100;-67
2023/09/15 09:16:23;;;;;;;4.20;1.83;;;20.70;92.90;;;;;;4993738;28;20022;-69
2023/09/15 09:19:00;;;;;;;2.58;1.83;;;20.80;93.10;;;;;;4991708;28;20038;-70
2023/09/15 09:21:30;;;;;;;2.92;1.88;;;20.80;93.00;;;;;;4993918;28;20053;-69
2023/09/15 09:23:57;;;;;;;3.13;1.65;;;20.90;92.60;;;;;;4992905;28;20034;-69
2023/09/15 09:26:23;;;;;;;3.47;1.67;;;20.90;92.60;;;;;;4989844;28;20027;-69
2023/09/15 09:28:54;;;;;;;3.15;1.73;;;21.00;93.00;;;;;;4976356;28;20089;-69
2023/09/15 09:31:21;;;;;;;2.55;1.80;;;21.10;92.60;;;;;;4990540;28;20031;-70
2023/09/15 09:33:48;;;;;;;3.28;1.88;;;21.10;91.60;;;;;;4997051;28;20036;-69
2023/09/15 09:36:15;;;;;;;3.22;1.77;;;21.20;91.20;;;;;;4994311;28;20116;-69
2023/09/15 09:38:43;;;;;;;4.38;1.85;;;21.20;91.40;;;;;;4990513;28;20030;-69
2023/09/15 09:41:12;;;;;;;3.10;1.98;;;21.30;91.50;;;;;;5000230;28;20029;-70
2023/09/15 09:43:39;;;;;;;5.82;1.70;;;21.30;91.70;;;;;;4989674;28;20023;-70
2023/09/15 09:46:06;;;;;;;6.07;1.70;;;21.40;91.30;;;;;;4963633;28;20038;-70
2023/09/15 09:48:39;;;;;;;2.47;1.52;;;21.50;90.50;;;;;;4993854;28;20034;-70
2023/09/15 09:51:07;;;;;;;2.58;1.50;;;21.60;90.70;;;;;;4992916;28;20042;-70
2023/09/15 09:53:35;;;;;;;3.28;1.75;;;21.60;91.10;;;;;;4992926;28;20068;-70
2023/09/15 09:56:03;;;;;;;2.72;1.65;;;21.70;90.60;;;;;;4995190;28;20486;-70
2023/09/15 09:58:29;;;;;;;3.83;1.50;;;21.80;90.40;;;;;;4991063;28;20039;-69
2023/09/15 10:00:54;;;;;;;4.15;1.48;;;21.80;89.70;;;;;;4992427;28;20033;-70
2023/09/15 10:03:21;;;;;;;3.67;1.45;;;21.80;90.20;;;;;;4983031;28;20529;-70
2023/09/15 10:05:48;;;;;;;3.35;1.67;;;21.90;90.10;;;;;;4995876;28;20100;-69
2023/09/15 10:08:15;;;;;;;2.60;1.65;;;22.20;88.00;;;;;;4999398;28;20030;-70
2023/09/15 10:10:45;;;;;;;2.88;1.58;;;22.50;85.50;;;;;;5000017;28;20045;-69
2023/09/15 10:13:12;;;;;;;2.50;1.65;;;22.70;85.40;;;;;;4991795;28;20117;-70
2023/09/15 10:15:42;;;;;;;3.40;1.58;;;22.50;85.30;;;;;;4996858;28;20046;-70
2023/09/15 10:18:12;;;;;;;5.30;1.65;;;22.40;84.70;;;;;;4994995;28;20038;-69
2023/09/15 10:20:43;;;;;;;3.28;1.70;;;22.30;86.10;;;;;;4984141;28;20030;-70
2023/09/15 10:23:12;;;;;;;2.45;1.70;;;22.30;87.30;;;;;;4985967;28;20015;-69
2023/09/15 10:25:43;;;;;;;3.85;2.05;;;22.50;87.10;;;;;;4995417;28;20053;-69
2023/09/15 10:28:12;;;;;;;1.75;1.52;;;22.70;85.80;;;;;;4991642;28;20095;-70
2023/09/15 10:30:38;;;;;;;4.40;2.00;;;23.00;85.30;;;;;;4996733;28;20061;-70
2023/09/15 10:33:09;;;;;;;3.15;1.80;;;23.30;84.20;;;;;;4997115;28;20032;-70
2023/09/15 10:35:37;;;;;;;2.15;1.63;;;23.40;83.20;;;;;;4998982;28;20120;-70
2023/09/15 10:38:04;;;;;;;2.65;1.38;;;23.50;83.20;;;;;;4985834;28;20033;-70
2023/09/15 10:40:50;;;;;;;2.90;1.90;;;23.50;83.90;;;;;;4994438;28;20165;-70
2023/09/15 10:43:19;;;;;;;;;;;23.60;84.60;;;;;;4990460;28;20446;-73
2023/09/15 10:46:05;;;;;;;3.03;1.80;;;24.10;81.60;;;;;;4995679;28;19917;-70
2023/09/15 10:48:44;;;;;;;2.72;1.55;;;24.80;77.70;;;;;;4983568;28;20030;-70
2023/09/15 10:51:10;;;;;;;4.03;1.77;;;25.00;77.10;;;;;;4989873;28;20042;-69
2023/09/15 10:53:43;;;;;;;2.42;1.75;;;24.70;75.40;;;;;;4998986;28;20034;-70
2023/09/15 10:56:09;;;;;;;2.83;1.50;;;24.30;77.70;;;;;;4992782;28;20027;-69
2023/09/15 10:58:36;;;;;;;2.75;1.73;;;24.00;77.70;;;;;;4996105;28;20443;-69
2023/09/15 11:01:03;;;;;;;2.58;1.58;;;23.90;78.10;;;;;;4999038;28;20030;-70
2023/09/15 11:03:29;;;;;;;2.10;1.60;;;23.70;78.50;;;;;;4986104;28;20022;-70
2023/09/15 11:05:56;;;;;;;3.63;1.90;;;23.50;78.30;;;;;;5003911;28;20144;-70
2023/09/15 11:08:24;;;;;;;7.38;1.75;;;23.40;80.70;;;;;;4987296;28;20076;-69
2023/09/15 11:11:03;;;;;;;3.58;2.00;;;23.40;79.00;;;;;;4996381;28;20121;-70
2023/09/15 11:13:29;;;;;;;3.72;1.73;;;23.20;80.40;;;;;;4974577;28;20662;-69
2023/09/15 11:15:55;;;;;;;5.72;1.80;;;23.30;82.20;;;;;;4987792;28;20035;-70
2023/09/15 11:18:20;;;;;;;5.13;1.65;;;23.30;82.60;;;;;;4987579;28;20526;-70
2023/09/15 11:20:46;;;;;;;3.08;1.90;;;23.30;79.90;;;;;;4997667;28;20410;-69
2023/09/15 11:23:15;;;;;;;4.72;1.73;;;23.30;81.10;;;;;;4987064;28;20561;-69
2023/09/15 11:25:41;;;;;;;2.95;1.50;;;23.20;79.70;;;;;;4977984;28;20438;-69
2023/09/15 11:28:16;;;;;;;4.38;2.20;;;23.10;80.30;;;;;;4997702;28;20034;-70
2023/09/15 11:30:43;;;;;;;3.13;2.20;;;23.10;80.10;;;;;;4996716;28;20489;-70
2023/09/15 11:33:09;;;;;;;2.03;1.77;;;23.10;80.10;;;;;;4988912;28;20041;-70
2023/09/15 11:35:35;;;;;;;3.83;1.52;;;23.20;79.00;;;;;;4979709;28;20491;-70
2023/09/15 11:38:04;;;;;;;2.88;1.90;;;23.30;78.20;;;;;;4987785;28;20045;-69
2023/09/15 11:40:32;;;;;;;3.50;1.80;;;23.20;77.40;;;;;;4990545;28;20105;-70
2023/09/15 11:43:02;;;;;;;2.97;1.80;;;23.20;78.00;;;;;;5001422;28;20034;-70
2023/09/15 11:45:32;;;;;;;2.47;1.60;;;22.90;77.50;;;;;;4999709;28;20120;-70
2023/09/15 11:47:59;;;;;;;3.33;1.80;;;22.90;78.50;;;;;;4999720;28;20049;-70
2023/09/15 11:50:28;;;;;;;2.50;1.92;;;23.00;77.70;;;;;;4984186;28;20038;-69
2023/09/15 11:52:54;;;;;;;3.63;1.85;;;23.10;78.60;;;;;;4999001;28;20045;-70
2023/09/15 11:55:23;;;;;;;2.53;1.80;;;23.20;77.80;;;;;;4996709;28;20030;-70
2023/09/15 11:57:50;;;;;;;2.80;1.58;;;23.30;77.40;;;;;;4992054;28;20034;-70
2023/09/15 12:00:22;;;;;;;5.60;1.83;;;23.30;77.20;;;;;;4995317;28;20041;-70
2023/09/15 12:02:49;;;;;;;3.28;2.05;;;23.40;79.40;;;;;;4997934;28;20592;-70
2023/09/15 12:05:18;;;;;;;3.72;2.00;;;23.50;78.20;;;;;;4980389;28;20069;-70
2023/09/15 12:07:44;;;;;;;5.38;2.08;;;23.70;79.10;;;;;;4992068;28;20503;-70
2023/09/15 12:10:15;;;;;;;3.03;1.83;;;23.80;78.30;;;;;;4987053;28;20042;-69
2023/09/15 12:12:49;;;;;;;2.38;1.80;;;23.80;77.10;;;;;;5123099;27;20322;-68
2023/09/15 12:15:15;;;;;;;3.28;2.00;;;23.90;76.60;;;;;;5122746;28;20626;-69
2023/09/15 12:17:45;;;;;;;2.75;1.90;;;23.90;76.80;;;;;;5119425;27;20149;-69
2023/09/15 12:20:12;;;;;;;2.80;1.83;;;23.90;75.70;;;;;;5123134;28;20023;-69
2023/09/15 12:22:40;;;;;;;2.60;1.60;;;23.90;74.70;;;;;;5123428;27;20038;-69
2023/09/15 12:25:09;;;;;;;2.97;1.67;;;23.70;75.50;;;;;;5114421;28;20031;-69
2023/09/15 12:27:40;;;;;;;3.08;1.73;;;23.70;76.50;;;;;;5118948;28;20031;-69
2023/09/15 12:30:10;;;;;;;3.60;2.33;;;23.70;75.40;;;;;;5120902;28;20027;-68
2023/09/15 12:32:36;;;;;;;4.13;1.55;;;23.60;76.30;;;;;;5116478;28;20062;-68
2023/09/15 12:35:12;;;;;;;2.20;1.55;;;23.60;75.90;;;;;;5122445;28;20058;-69
2023/09/15 12:37:46;;;;;;;2.78;1.75;;;23.50;75.90;;;;;;5113790;28;20039;-69
2023/09/15 12:40:13;;;;;;;2.75;1.80;;;23.50;75.70;;;;;;5117716;28;20032;-69
2023/09/15 12:42:39;;;;;;;3.15;1.80;;;23.60;76.90;;;;;;5117871;28;20040;-68
2023/09/15 12:45:06;;;;;;;4.03;1.95;;;23.60;76.20;;;;;;5122864;27;20739;-69
2023/09/15 12:47:33;;;;;;;3.63;1.52;;;23.60;76.40;;;;;;5119076;27;20031;-69
2023/09/15 12:49:59;;;;;;;2.30;1.70;;;23.60;75.60;;;;;;5119615;28;20038;-69
2023/09/15 12:52:26;;;;;;;8.27;2.05;;;23.70;77.00;;;;;;5118920;27;20039;-69
2023/09/15 12:54:52;;;;;;;2.30;1.80;;;23.70;77.30;;;;;;5120455;28;20035;-69